createdAt,value
2023-03-01T00:01:32.489Z,100249.66
2023-03-01T00:04:01.091Z,100257.91
2023-03-01T00:06:29.322Z,100252.97
2023-03-01T00:08:57.637Z,100257.84
2023-03-01T00:11:28.542Z,100259.12
2023-03-01T00:13:58.970Z,100254.66
2023-03-01T00:16:30.905Z,100252.03
2023-03-01T00:18:59.441Z,100250.91
2023-03-01T00:21:28.439Z,100262.91
2023-03-01T00:23:56.853Z,100254.94
2023-03-01T00:26:26.333Z,100261.31
2023-03-01T00:28:56.697Z,100263.78
2023-03-01T00:31:26.729Z,100263.16
2023-03-01T00:33:59.310Z,100267.44
2023-03-01T00:36:30.943Z,100267.00
2023-03-01T00:38:59.587Z,100262.91
2023-03-01T00:41:27.943Z,100261.13
2023-03-01T00:43:56.232Z,100264.59
2023-03-01T00:46:27.364Z,100261.31
2023-03-01T00:48:55.570Z,100252.84
2023-03-01T00:51:26.761Z,100244.44
2023-03-01T00:53:57.945Z,100253.19
2023-03-01T00:56:26.959Z,100244.19
2023-03-01T00:58:55.328Z,100241.31
2023-03-01T01:01:27.238Z,100249.78
2023-03-01T01:03:59.495Z,100252.50
2023-03-01T01:06:36.658Z,100246.97
2023-03-01T01:09:07.813Z,100246.50
2023-03-01T01:11:37.644Z,100238.84
2023-03-01T01:14:06.090Z,100242.19
2023-03-01T01:16:34.553Z,100240.78
2023-03-01T01:19:03.180Z,100233.44
2023-03-01T01:21:31.758Z,100229.81
2023-03-01T01:23:59.999Z,100235.09
2023-03-01T01:26:33.803Z,100225.31
2023-03-01T01:29:05.041Z,100224.25
2023-03-01T01:31:34.138Z,100212.97
2023-03-01T01:34:03.973Z,100211.56
2023-03-01T01:36:34.314Z,100216.13
2023-03-01T01:39:02.878Z,100221.97
2023-03-01T01:41:31.725Z,100210.44
2023-03-01T01:44:24.658Z,100208.75
2023-03-01T01:47:05.610Z,100201.28
2023-03-01T01:49:37.751Z,100202.84
2023-03-01T01:52:17.989Z,100203.06
2023-03-01T01:54:55.108Z,100204.75
2023-03-01T01:57:45.082Z,100195.94
2023-03-01T02:00:22.094Z,100195.56
2023-03-01T02:02:56.188Z,100194.28
2023-03-01T02:05:42.043Z,100183.47
2023-03-01T02:08:12.710Z,100178.28
2023-03-01T02:10:41.990Z,100181.53
2023-03-01T02:13:10.957Z,100180.59
2023-03-01T02:15:40.029Z,100181.16
2023-03-01T02:18:09.552Z,100178.25
2023-03-01T02:20:59.959Z,100191.88
2023-03-01T02:23:29.450Z,100194.50
2023-03-01T02:25:59.064Z,100190.00
2023-03-01T02:28:28.289Z,100194.88
2023-03-01T02:31:15.046Z,100184.13
2023-03-01T02:33:43.480Z,100179.78
2023-03-01T02:36:18.259Z,100172.53
2023-03-01T02:38:47.007Z,100169.69
2023-03-01T02:41:17.899Z,100170.97
2023-03-01T02:43:46.698Z,100166.63
2023-03-01T02:46:18.410Z,100163.81
2023-03-01T02:48:49.738Z,100165.09
2023-03-01T02:51:45.878Z,100159.50
2023-03-01T02:54:32.553Z,100163.59
2023-03-01T02:57:01.101Z,100165.38
2023-03-01T02:59:40.538Z,100152.94
2023-03-01T03:02:21.860Z,100156.25
2023-03-01T03:04:50.209Z,100154.09
2023-03-01T03:07:18.248Z,100154.09
2023-03-01T03:09:46.446Z,100153.53
2023-03-01T03:12:14.940Z,100154.72
2023-03-01T03:14:43.411Z,100150.97
2023-03-01T03:17:11.369Z,100150.03
2023-03-01T03:19:39.660Z,100146.47
2023-03-01T03:22:10.170Z,100148.09
2023-03-01T03:24:39.470Z,100137.94
2023-03-01T03:27:08.458Z,100137.81
2023-03-01T03:29:36.469Z,100132.69
2023-03-01T03:32:04.649Z,100134.16
2023-03-01T03:34:33.028Z,100135.22
2023-03-01T03:37:00.985Z,100136.50
2023-03-01T03:39:30.197Z,100134.28
2023-03-01T03:41:58.551Z,100133.53
2023-03-01T03:44:26.512Z,100139.34
2023-03-01T03:46:54.520Z,100135.72
2023-03-01T03:49:22.876Z,100140.97
2023-03-01T03:51:50.906Z,100138.22
2023-03-01T03:54:18.967Z,100137.16
2023-03-01T03:56:47.212Z,100139.56
2023-03-01T03:59:15.264Z,100135.91
2023-03-01T04:01:43.309Z,100131.25
2023-03-01T04:04:11.717Z,100137.25
2023-03-01T04:06:40.143Z,100136.66
2023-03-01T04:09:08.024Z,100139.22
2023-03-01T04:11:36.464Z,100133.81
2023-03-01T04:14:05.651Z,100127.09
2023-03-01T04:16:34.106Z,100112.84
2023-03-01T04:19:02.714Z,100130.88
2023-03-01T04:21:30.896Z,100126.84
2023-03-01T04:23:58.978Z,100121.97
2023-03-01T04:26:28.688Z,100125.56
2023-03-01T04:28:57.107Z,100126.03
2023-03-01T04:31:25.093Z,100127.38
2023-03-01T04:33:55.359Z,100131.31
2023-03-01T04:36:28.051Z,100128.66
2023-03-01T04:38:57.303Z,100142.63
2023-03-01T04:41:26.287Z,100138.59
2023-03-01T04:43:54.408Z,100136.41
2023-03-01T04:46:23.395Z,100136.03
2023-03-01T04:48:51.652Z,100141.09
2023-03-01T04:51:19.755Z,100131.06
2023-03-01T04:53:48.286Z,100128.03
2023-03-01T04:56:17.091Z,100122.53
2023-03-01T04:58:45.983Z,100126.38
2023-03-01T05:01:16.735Z,100123.19
2023-03-01T05:03:50.078Z,100129.56
2023-03-01T05:06:19.726Z,100124.94
2023-03-01T05:08:47.712Z,100126.34
2023-03-01T05:11:15.690Z,100126.22
2023-03-01T05:13:44.507Z,100130.88
2023-03-01T05:16:12.928Z,100131.72
2023-03-01T05:18:42.138Z,100136.38
2023-03-01T05:21:14.229Z,100135.97
2023-03-01T05:23:42.364Z,100135.31
2023-03-01T05:26:25.857Z,100131.84
2023-03-01T05:29:00.366Z,100135.50
2023-03-01T05:31:29.582Z,100131.63
2023-03-01T05:33:57.682Z,100136.66
2023-03-01T05:36:25.643Z,100133.34
2023-03-01T05:38:53.966Z,100134.88
2023-03-01T05:41:22.029Z,100125.44
2023-03-01T05:43:49.967Z,100130.66
2023-03-01T05:46:18.490Z,100134.12
2023-03-01T05:48:46.595Z,100135.69
2023-03-01T05:51:14.587Z,100133.88
2023-03-01T05:53:43.054Z,100127.34
2023-03-01T05:56:12.026Z,100134.50
2023-03-01T05:58:40.037Z,100128.75
2023-03-01T06:01:13.530Z,100136.91
2023-03-01T06:03:42.053Z,100139.53
2023-03-01T06:06:09.989Z,100142.84
2023-03-01T06:08:38.040Z,100139.66
2023-03-01T06:11:06.608Z,100146.22
2023-03-01T06:13:34.720Z,100146.38
2023-03-01T06:16:06.175Z,100146.84
2023-03-01T06:18:34.554Z,100144.97
2023-03-01T06:21:02.615Z,100154.81
2023-03-01T06:23:30.719Z,100154.84
2023-03-01T06:25:59.241Z,100152.44
2023-03-01T06:28:27.480Z,100155.78
2023-03-01T06:30:55.518Z,100160.00
2023-03-01T06:33:25.537Z,100163.97
2023-03-01T06:35:57.438Z,100160.31
2023-03-01T06:38:25.869Z,100156.78
2023-03-01T06:40:57.765Z,100165.78
2023-03-01T06:43:26.199Z,100167.66
2023-03-01T06:45:54.222Z,100165.59
2023-03-01T06:48:22.203Z,100163.41
2023-03-01T06:50:50.582Z,100166.13
2023-03-01T06:53:18.642Z,100160.75
2023-03-01T06:55:46.708Z,100161.84
2023-03-01T06:58:15.443Z,100160.34
2023-03-01T07:00:44.869Z,100167.03
2023-03-01T07:03:12.872Z,100166.94
2023-03-01T07:05:41.348Z,100165.94
2023-03-01T07:08:10.507Z,100168.00
2023-03-01T07:10:38.676Z,100176.47
2023-03-01T07:13:08.520Z,100170.41
2023-03-01T07:15:36.836Z,100169.28
2023-03-01T07:18:05.188Z,100163.78
2023-03-01T07:20:33.620Z,100169.25
2023-03-01T07:23:01.622Z,100163.91
2023-03-01T07:25:29.728Z,100165.34
2023-03-01T07:27:58.059Z,100172.94
2023-03-01T07:30:29.907Z,100167.28
2023-03-01T07:32:59.579Z,100171.00
2023-03-01T07:35:28.221Z,100172.34
2023-03-01T07:37:56.285Z,100164.03
2023-03-01T07:40:25.123Z,100175.81
2023-03-01T07:42:59.879Z,100167.59
2023-03-01T07:45:29.084Z,100172.09
2023-03-01T07:47:58.089Z,100169.09
2023-03-01T07:50:26.459Z,100169.84
2023-03-01T07:52:54.803Z,100161.91
2023-03-01T07:55:22.936Z,100158.81
2023-03-01T07:57:50.984Z,100164.06
2023-03-01T08:00:20.224Z,100153.41
2023-03-01T08:02:51.015Z,100160.13
2023-03-01T08:05:20.121Z,100154.69
2023-03-01T08:07:48.116Z,100153.69
2023-03-01T08:10:18.643Z,100160.44
2023-03-01T08:12:46.596Z,100158.34
2023-03-01T08:15:14.594Z,100153.66
2023-03-01T08:17:43.108Z,100153.84
2023-03-01T08:20:13.716Z,100153.13
2023-03-01T08:22:42.201Z,100148.53
2023-03-01T08:25:10.602Z,100148.03
2023-03-01T08:27:40.281Z,100148.22
2023-03-01T08:30:09.396Z,100147.59
2023-03-01T08:32:39.443Z,100143.59
2023-03-01T08:35:07.983Z,100149.09
2023-03-01T08:37:36.372Z,100152.59
2023-03-01T08:40:08.611Z,100151.19
2023-03-01T08:42:38.159Z,100153.19
2023-03-01T08:45:06.643Z,100148.06
2023-03-01T08:47:34.861Z,100143.34
2023-03-01T08:50:04.311Z,100148.00
2023-03-01T08:52:33.899Z,100140.44
2023-03-01T08:55:02.768Z,100134.91
2023-03-01T08:57:31.239Z,100134.31
2023-03-01T08:59:59.886Z,100122.72
2023-03-01T09:02:30.182Z,100117.84
2023-03-01T09:04:58.504Z,100117.16
2023-03-01T09:07:29.572Z,100112.38
2023-03-01T09:09:57.757Z,100109.41
2023-03-01T09:12:26.395Z,100116.00
2023-03-01T09:14:54.503Z,100103.53
2023-03-01T09:17:24.624Z,100109.72
2023-03-01T09:19:54.699Z,100108.19
2023-03-01T09:22:22.783Z,100094.91
2023-03-01T09:24:50.843Z,100086.78
2023-03-01T09:27:20.895Z,100086.72
2023-03-01T09:29:48.857Z,100084.94
2023-03-01T09:32:17.102Z,100086.59
2023-03-01T09:35:04.454Z,100085.06
2023-03-01T09:37:38.666Z,100073.91
2023-03-01T09:40:09.051Z,100063.53
2023-03-01T09:42:39.738Z,100063.50
2023-03-01T09:45:13.500Z,100065.19
2023-03-01T09:47:42.547Z,100061.69
2023-03-01T09:50:17.700Z,100062.44
2023-03-01T09:52:57.909Z,100059.81
2023-03-01T09:55:45.039Z,100057.44
2023-03-01T09:58:44.319Z,100057.19
2023-03-01T10:01:36.066Z,100049.31
2023-03-01T10:04:20.057Z,100051.78
2023-03-01T10:07:07.798Z,100046.47
2023-03-01T10:09:39.218Z,100055.09
2023-03-01T10:12:16.239Z,100045.28
2023-03-01T10:15:14.254Z,100043.38
2023-03-01T10:17:54.211Z,100038.84
2023-03-01T10:20:29.737Z,100034.94
2023-03-01T10:22:57.849Z,100032.34
2023-03-01T10:25:38.459Z,100025.09
2023-03-01T10:28:14.110Z,100017.22
2023-03-01T10:30:45.153Z,100016.84
2023-03-01T10:33:23.090Z,100019.53
2023-03-01T10:35:52.190Z,100015.69
2023-03-01T10:38:21.685Z,100017.72
2023-03-01T10:41:08.402Z,100016.41
2023-03-01T10:43:54.912Z,100008.09
2023-03-01T10:46:33.680Z,100009.34
2023-03-01T10:49:24.276Z,100011.50
2023-03-01T10:51:53.738Z,100002.31
2023-03-01T10:54:29.629Z,99992.53
2023-03-01T10:57:03.886Z,99992.16
2023-03-01T10:59:32.418Z,99987.16
2023-03-01T11:02:47.876Z,99986.44
2023-03-01T11:05:25.172Z,99980.91
2023-03-01T11:07:59.777Z,99988.31
2023-03-01T11:10:34.046Z,99995.50
2023-03-01T11:13:18.811Z,99984.41
2023-03-01T11:16:09.315Z,99981.13
2023-03-01T11:18:47.786Z,99972.81
2023-03-01T11:21:18.802Z,99971.28
2023-03-01T11:23:48.317Z,99978.84
2023-03-01T11:26:19.757Z,99970.56
2023-03-01T11:28:56.742Z,99965.69
2023-03-01T11:31:25.947Z,99967.72
2023-03-01T11:33:59.514Z,99967.78
2023-03-01T11:36:40.155Z,99971.78
2023-03-01T11:39:20.298Z,99975.72
2023-03-01T11:41:53.460Z,99976.78
2023-03-01T11:44:29.765Z,99970.75
2023-03-01T11:47:19.022Z,99962.78
2023-03-01T11:49:56.125Z,99962.25
2023-03-01T11:52:52.924Z,99963.09
2023-03-01T11:56:06.246Z,99963.00
2023-03-01T11:59:05.431Z,99964.91
2023-03-01T12:01:56.676Z,99960.63
2023-03-01T12:05:00.895Z,99958.03
2023-03-01T12:07:50.867Z,99950.78
2023-03-01T12:10:29.260Z,99945.72
2023-03-01T12:13:25.465Z,99936.25
2023-03-01T12:16:12.752Z,99931.87
2023-03-01T12:18:50.906Z,99924.03
2023-03-01T12:21:34.478Z,99920.19
2023-03-01T12:24:31.887Z,99916.94
2023-03-01T12:27:38.923Z,99899.19
2023-03-01T12:30:29.838Z,99901.50
2023-03-01T12:33:14.895Z,99904.38
2023-03-01T12:35:51.776Z,99899.59
2023-03-01T12:38:44.259Z,99899.44
2023-03-01T12:41:15.602Z,99902.87
2023-03-01T12:43:59.948Z,99901.09
2023-03-01T12:46:53.910Z,99896.38
2023-03-01T12:49:50.908Z,99892.19
2023-03-01T12:52:24.557Z,99895.44
2023-03-01T12:54:56.907Z,99896.28
2023-03-01T12:57:41.940Z,99888.88
2023-03-01T13:00:29.950Z,99886.69
2023-03-01T13:03:36.955Z,99887.59
2023-03-01T13:06:24.166Z,99891.38
2023-03-01T13:09:18.916Z,99886.37
2023-03-01T13:11:47.378Z,99889.75
2023-03-01T13:14:24.959Z,99873.94
2023-03-01T13:16:56.579Z,99878.09
2023-03-01T13:19:26.773Z,99867.56
2023-03-01T13:21:56.085Z,99856.72
2023-03-01T13:24:36.311Z,99865.25
2023-03-01T13:27:07.764Z,99863.97
2023-03-01T13:30:07.894Z,99866.44
2023-03-01T13:32:44.345Z,99848.72
2023-03-01T13:35:16.215Z,99848.66
2023-03-01T13:37:47.086Z,99853.72
2023-03-01T13:40:20.605Z,99848.47
2023-03-01T13:43:03.134Z,99846.56
2023-03-01T13:45:40.045Z,99834.16
2023-03-01T13:48:13.916Z,99840.66
2023-03-01T13:50:49.424Z,99833.47
2023-03-01T13:53:20.941Z,99831.09
2023-03-01T13:56:29.067Z,99834.41
2023-03-01T13:59:07.458Z,99828.13
2023-03-01T14:01:38.938Z,99832.91
2023-03-01T14:04:32.489Z,99829.53
2023-03-01T14:07:22.917Z,99824.88
2023-03-01T14:09:57.781Z,99817.94
2023-03-01T14:12:48.693Z,99807.66
2023-03-01T14:15:35.363Z,99812.03
2023-03-01T14:18:33.956Z,99806.03
2023-03-01T14:21:11.220Z,99803.91
2023-03-01T14:23:41.430Z,99796.75
2023-03-01T14:26:10.241Z,99800.16
2023-03-01T14:28:40.141Z,99798.13
2023-03-01T14:31:38.464Z,99792.91
2023-03-01T14:34:22.208Z,99781.66
2023-03-01T14:36:50.822Z,99774.50
2023-03-01T14:39:26.809Z,99765.31
2023-03-01T14:41:57.432Z,99770.72
2023-03-01T14:44:27.288Z,99766.03
2023-03-01T14:46:57.260Z,99773.50
2023-03-01T14:49:31.438Z,99763.41
2023-03-01T14:52:06.952Z,99766.22
2023-03-01T14:54:54.720Z,99766.59
2023-03-01T14:57:26.551Z,99752.31
2023-03-01T15:00:01.644Z,99758.13
2023-03-01T15:02:31.597Z,99759.50
2023-03-01T15:05:02.680Z,99754.75
2023-03-01T15:07:33.749Z,99751.16
2023-03-01T15:10:03.504Z,99754.38
2023-03-01T15:12:38.090Z,99752.81
2023-03-01T15:15:33.425Z,99761.47
2023-03-01T15:18:09.051Z,99764.81
2023-03-01T15:20:38.759Z,99756.44
2023-03-01T15:23:07.707Z,99751.38
2023-03-01T15:25:35.866Z,99752.34
2023-03-01T15:28:04.290Z,99760.03
2023-03-01T15:30:39.035Z,99759.53
2023-03-01T15:33:35.174Z,99756.59
2023-03-01T15:36:26.021Z,99763.94
2023-03-01T15:38:56.511Z,99752.25
2023-03-01T15:41:35.100Z,99750.34
2023-03-01T15:44:17.356Z,99748.75
2023-03-01T15:46:49.896Z,99740.31
2023-03-01T15:49:46.477Z,99752.38
2023-03-01T15:52:32.880Z,99753.69
2023-03-01T15:55:03.752Z,99740.94
2023-03-01T15:57:32.353Z,99760.19
2023-03-01T16:00:02.315Z,99752.28
2023-03-01T16:02:34.170Z,99752.00
2023-03-01T16:05:02.568Z,99762.47
2023-03-01T16:07:32.299Z,99762.06
2023-03-01T16:10:02.204Z,99769.97
2023-03-01T16:12:30.688Z,99772.81
2023-03-01T16:14:59.003Z,99773.25
2023-03-01T16:17:27.187Z,99781.34
2023-03-01T16:19:56.840Z,99770.34
2023-03-01T16:22:28.214Z,99772.78
2023-03-01T16:24:58.035Z,99776.25
2023-03-01T16:27:26.181Z,99780.31
2023-03-01T16:29:54.268Z,99778.63
2023-03-01T16:32:24.233Z,99780.56
2023-03-01T16:34:52.460Z,99778.03
2023-03-01T16:37:24.039Z,99774.53
2023-03-01T16:39:52.560Z,99776.22
2023-03-01T16:42:20.756Z,99784.00
2023-03-01T16:44:48.709Z,99785.66
2023-03-01T16:47:17.191Z,99789.13
2023-03-01T16:49:45.529Z,99785.56
2023-03-01T16:52:13.660Z,99789.91
2023-03-01T16:54:44.940Z,99794.69
2023-03-01T16:57:13.311Z,99793.59
2023-03-01T16:59:42.033Z,99791.59
2023-03-01T17:02:15.168Z,99802.69
2023-03-01T17:04:43.305Z,99799.03
2023-03-01T17:07:11.748Z,99800.59
2023-03-01T17:09:39.787Z,99805.63
2023-03-01T17:12:07.988Z,99805.22
2023-03-01T17:14:36.639Z,99797.28
2023-03-01T17:17:04.668Z,99801.28
2023-03-01T17:19:33.178Z,99797.81
2023-03-01T17:22:01.629Z,99797.59
2023-03-01T17:24:33.308Z,99789.78
2023-03-01T17:27:01.857Z,99796.53
2023-03-01T17:29:30.057Z,99798.91
2023-03-01T17:31:58.862Z,99802.00
2023-03-01T17:34:27.971Z,99796.72
2023-03-01T17:36:56.019Z,99800.16
2023-03-01T17:39:29.349Z,99804.91
2023-03-01T17:41:59.457Z,99802.81
2023-03-01T17:44:27.667Z,99804.44
2023-03-01T17:46:55.676Z,99800.00
2023-03-01T17:49:24.149Z,99806.03
2023-03-01T17:51:52.593Z,99799.53
2023-03-01T17:54:21.607Z,99799.84
2023-03-01T17:56:50.890Z,99794.06
2023-03-01T17:59:19.463Z,99801.53
2023-03-01T18:01:48.001Z,99796.19
2023-03-01T18:04:18.600Z,99791.94
2023-03-01T18:06:46.624Z,99788.66
2023-03-01T18:09:15.114Z,99787.41
2023-03-01T18:11:46.816Z,99787.44
2023-03-01T18:14:15.914Z,99787.03
2023-03-01T18:16:44.754Z,99783.94
2023-03-01T18:19:13.396Z,99787.97
2023-03-01T18:21:41.456Z,99785.88
2023-03-01T18:24:09.873Z,99789.09
2023-03-01T18:26:39.944Z,99783.25
2023-03-01T18:29:08.498Z,99782.44
2023-03-01T18:31:37.397Z,99785.72
2023-03-01T18:34:05.387Z,99782.38
2023-03-01T18:36:35.629Z,99780.41
2023-03-01T18:39:07.706Z,99791.72
2023-03-01T18:41:37.012Z,99787.44
2023-03-01T18:44:05.968Z,99787.44
2023-03-01T18:46:37.973Z,99788.75
2023-03-01T18:49:07.713Z,99790.47
2023-03-01T18:51:36.048Z,99783.66
2023-03-01T18:54:04.575Z,99783.78
2023-03-01T18:56:36.574Z,99778.84
2023-03-01T18:59:06.226Z,99775.47
2023-03-01T19:01:37.336Z,99782.28
2023-03-01T19:04:08.186Z,99781.97
2023-03-01T19:06:37.177Z,99778.81
2023-03-01T19:09:07.384Z,99776.56
2023-03-01T19:11:39.264Z,99779.22
2023-03-01T19:14:08.826Z,99786.13
2023-03-01T19:16:36.933Z,99791.50
2023-03-01T19:19:06.304Z,99790.84
2023-03-01T19:21:36.103Z,99789.25
2023-03-01T19:24:04.748Z,99787.97
2023-03-01T19:26:33.927Z,99790.38
2023-03-01T19:29:03.794Z,99786.50
2023-03-01T19:31:32.190Z,99786.34
2023-03-01T19:34:15.997Z,99783.06
2023-03-01T19:36:48.165Z,99786.88
2023-03-01T19:39:16.374Z,99789.72
2023-03-01T19:41:44.873Z,99794.97
2023-03-01T19:44:13.336Z,99800.78
2023-03-01T19:46:41.485Z,99798.88
2023-03-01T19:49:09.525Z,99806.19
2023-03-01T19:51:39.631Z,99797.53
2023-03-01T19:54:10.054Z,99804.69
2023-03-01T19:56:39.147Z,99815.69
2023-03-01T19:59:07.223Z,99814.41
2023-03-01T20:01:35.653Z,99816.81
2023-03-01T20:04:04.989Z,99822.78
2023-03-01T20:06:33.578Z,99819.81
2023-03-01T20:09:18.936Z,99817.75
2023-03-01T20:11:49.415Z,99821.31
2023-03-01T20:14:18.149Z,99817.87
2023-03-01T20:16:46.501Z,99820.69
2023-03-01T20:19:14.909Z,99826.13
2023-03-01T20:21:43.056Z,99826.88
2023-03-01T20:24:11.292Z,99820.78
2023-03-01T20:26:41.273Z,99814.94
2023-03-01T20:29:09.781Z,99819.78
2023-03-01T20:31:40.025Z,99825.31
2023-03-01T20:34:08.818Z,99828.13
2023-03-01T20:36:39.132Z,99825.87
2023-03-01T20:39:07.961Z,99827.13
2023-03-01T20:41:36.391Z,99827.56
2023-03-01T20:44:06.881Z,99822.94
2023-03-01T20:46:36.264Z,99832.13
2023-03-01T20:49:05.388Z,99829.41
2023-03-01T20:51:33.896Z,99830.38
2023-03-01T20:54:01.999Z,99827.69
2023-03-01T20:56:31.086Z,99824.00
2023-03-01T20:59:04.749Z,99836.41
2023-03-01T21:01:33.421Z,99832.84
2023-03-01T21:04:02.168Z,99836.47
2023-03-01T21:06:30.430Z,99834.22
2023-03-01T21:08:59.023Z,99841.22
2023-03-01T21:11:27.394Z,99845.03
2023-03-01T21:13:56.264Z,99841.97
2023-03-01T21:16:25.345Z,99845.25
2023-03-01T21:18:54.762Z,99846.56
2023-03-01T21:21:24.309Z,99843.88
2023-03-01T21:23:54.584Z,99841.81
2023-03-01T21:26:25.318Z,99841.56
2023-03-01T21:28:59.387Z,99846.78
2023-03-01T21:31:35.146Z,99841.59
2023-03-01T21:34:05.981Z,99834.94
2023-03-01T21:36:35.463Z,99837.78
2023-03-01T21:39:05.784Z,99844.41
2023-03-01T21:41:36.253Z,99843.72
2023-03-01T21:44:06.996Z,99844.66
2023-03-01T21:46:37.461Z,99843.28
2023-03-01T21:49:07.518Z,99848.94
2023-03-01T21:51:36.866Z,99848.63
2023-03-01T21:54:06.083Z,99839.88
2023-03-01T21:56:39.281Z,99839.41
2023-03-01T21:59:29.224Z,99840.94
2023-03-01T22:01:57.296Z,99830.63
2023-03-01T22:04:26.002Z,99834.16
2023-03-01T22:06:54.606Z,99832.06
2023-03-01T22:09:23.852Z,99837.22
2023-03-01T22:12:02.619Z,99833.69
2023-03-01T22:14:31.811Z,99835.00
2023-03-01T22:17:00.257Z,99843.63
2023-03-01T22:19:28.905Z,99839.25
2023-03-01T22:21:57.022Z,99841.37
2023-03-01T22:24:25.978Z,99835.41
2023-03-01T22:26:54.683Z,99828.56
2023-03-01T22:29:25.934Z,99828.69
2023-03-01T22:31:55.391Z,99832.22
2023-03-01T22:34:23.669Z,99840.22
2023-03-01T22:36:51.690Z,99832.03
2023-03-01T22:39:21.575Z,99828.44
2023-03-01T22:41:50.494Z,99829.06
2023-03-01T22:44:22.444Z,99838.72
2023-03-01T22:46:51.656Z,99833.81
2023-03-01T22:49:20.297Z,99841.09
2023-03-01T22:51:48.895Z,99828.56
2023-03-01T22:54:18.929Z,99833.31
2023-03-01T22:56:47.189Z,99835.75
2023-03-01T22:59:19.153Z,99831.66
2023-03-01T23:01:48.313Z,99831.13
2023-03-01T23:04:17.790Z,99823.94
2023-03-01T23:06:55.963Z,99821.00
2023-03-01T23:09:30.972Z,99821.25
2023-03-01T23:12:01.148Z,99823.34
2023-03-01T23:14:31.866Z,99824.63
2023-03-01T23:17:03.071Z,99825.00
2023-03-01T23:19:32.248Z,99823.72
2023-03-01T23:22:00.304Z,99830.41
2023-03-01T23:24:32.082Z,99830.41
2023-03-01T23:27:01.912Z,99825.41
2023-03-01T23:29:30.628Z,99834.94
2023-03-01T23:31:59.518Z,99839.03
2023-03-01T23:34:28.410Z,99831.38
2023-03-01T23:36:58.141Z,99826.72
2023-03-01T23:39:26.560Z,99838.47
2023-03-01T23:41:54.864Z,99832.22
2023-03-01T23:44:23.494Z,99838.03
2023-03-01T23:46:51.619Z,99827.69
2023-03-01T23:49:22.583Z,99834.59
2023-03-01T23:51:51.507Z,99829.25
2023-03-01T23:54:22.240Z,99823.81
2023-03-01T23:56:50.611Z,99816.94
2023-03-01T23:59:22.159Z,99821.84
